createdAt,value
2022-11-04T00:01:53.011Z,2.87
2022-11-04T00:04:20.774Z,2.63
2022-11-04T00:06:48.031Z,2.27
2022-11-04T00:09:25.223Z,3.80
2022-11-04T00:12:10.338Z,3.20
2022-11-04T00:14:36.872Z,2.73
2022-11-04T00:17:19.592Z,3.13
2022-11-04T00:20:05.044Z,2.90
2022-11-04T00:22:50.450Z,3.90
2022-11-04T00:25:35.614Z,3.80
2022-11-04T00:28:24.864Z,4.07
2022-11-04T00:30:55.425Z,4.50
2022-11-04T00:33:28.037Z,3.50
2022-11-04T00:35:55.523Z,3.80
2022-11-04T00:38:22.696Z,3.90
2022-11-04T00:40:49.410Z,3.97
2022-11-04T00:43:16.184Z,3.17
2022-11-04T00:45:42.956Z,3.10
2022-11-04T00:48:10.110Z,3.83
2022-11-04T00:50:37.043Z,3.60
2022-11-04T00:53:04.021Z,3.30
2022-11-04T00:55:30.708Z,3.27
2022-11-04T00:57:57.890Z,3.70
2022-11-04T01:00:24.428Z,5.23
2022-11-04T01:02:50.925Z,4.07
2022-11-04T01:05:17.415Z,3.60
2022-11-04T01:07:44.152Z,3.70
2022-11-04T01:10:10.872Z,3.70
2022-11-04T01:12:37.364Z,3.30
2022-11-04T01:15:04.157Z,4.20
2022-11-04T01:17:30.619Z,2.83
2022-11-04T01:19:57.270Z,3.23
2022-11-04T01:22:23.988Z,3.00
2022-11-04T01:24:50.514Z,2.60
2022-11-04T01:27:16.955Z,1.70
2022-11-04T01:29:43.544Z,2.80
2022-11-04T01:32:10.038Z,2.40
2022-11-04T01:34:42.287Z,3.07
2022-11-04T01:37:10.313Z,2.20
2022-11-04T01:39:36.792Z,2.30
2022-11-04T01:44:42.404Z,2.83
2022-11-04T01:47:27.942Z,1.93
2022-11-04T01:49:56.663Z,2.87
2022-11-04T01:52:28.929Z,2.80
2022-11-04T01:54:57.497Z,2.03
2022-11-04T01:57:27.769Z,3.30
2022-11-04T01:59:54.844Z,2.93
2022-11-04T02:02:23.731Z,3.50
2022-11-04T02:04:50.483Z,3.73
2022-11-04T02:07:17.439Z,2.63
2022-11-04T02:09:44.225Z,3.43
2022-11-04T02:12:29.695Z,2.73
2022-11-04T02:14:58.014Z,2.60
2022-11-04T02:17:27.739Z,2.13
2022-11-04T02:19:59.653Z,2.57
2022-11-04T02:22:45.121Z,2.03
2022-11-04T02:25:27.118Z,2.40
2022-11-04T02:28:02.640Z,2.87
2022-11-04T02:30:34.491Z,2.00
2022-11-04T02:33:19.573Z,2.47
2022-11-04T02:35:49.217Z,2.20
2022-11-04T02:38:15.859Z,2.10
2022-11-04T02:40:51.750Z,2.60
2022-11-04T02:43:33.257Z,2.90
2022-11-04T02:46:03.578Z,2.60
2022-11-04T02:48:41.046Z,1.97
2022-11-04T02:51:43.021Z,1.70
2022-11-04T02:54:13.344Z,1.40
2022-11-04T02:56:42.484Z,3.03
2022-11-04T02:59:12.484Z,3.60
2022-11-04T03:01:40.977Z,2.03
2022-11-04T03:04:11.445Z,2.20
2022-11-04T03:06:38.749Z,2.30
2022-11-04T03:09:05.273Z,2.47
2022-11-04T03:11:32.671Z,2.27
2022-11-04T03:14:01.803Z,3.00
2022-11-04T03:16:32.839Z,2.10
2022-11-04T03:19:02.246Z,1.50
2022-11-04T03:21:31.462Z,1.77
2022-11-04T03:23:58.234Z,2.00
2022-11-04T03:26:30.902Z,2.30
2022-11-04T03:29:04.855Z,1.30
2022-11-04T03:31:40.442Z,2.10
2022-11-04T03:34:07.126Z,2.03
2022-11-04T03:36:33.596Z,1.90
2022-11-04T03:39:00.114Z,2.43
2022-11-04T03:41:39.869Z,1.07
2022-11-04T03:44:06.601Z,1.53
2022-11-04T03:46:33.958Z,2.10
2022-11-04T03:49:00.994Z,3.93
2022-11-04T03:51:27.647Z,2.47
2022-11-04T03:53:54.950Z,2.00
2022-11-04T03:56:25.301Z,3.07
2022-11-04T03:59:10.535Z,2.07
2022-11-04T04:01:43.179Z,2.27
2022-11-04T04:04:23.114Z,2.50
2022-11-04T04:06:51.719Z,1.83
2022-11-04T04:09:23.751Z,1.93
2022-11-04T04:12:02.565Z,1.53
2022-11-04T04:14:41.456Z,1.40
2022-11-04T04:17:17.982Z,2.20
2022-11-04T04:20:04.974Z,1.90
2022-11-04T04:22:37.088Z,2.13
2022-11-04T04:25:24.891Z,2.07
2022-11-04T04:27:51.992Z,2.20
2022-11-04T04:30:18.779Z,3.00
2022-11-04T04:32:50.605Z,2.10
2022-11-04T04:35:36.008Z,2.30
2022-11-04T04:38:22.952Z,2.20
2022-11-04T04:41:28.602Z,3.60
2022-11-04T04:44:14.038Z,2.50
2022-11-04T04:46:41.489Z,2.80
2022-11-04T04:49:09.086Z,3.27
2022-11-04T04:51:38.760Z,3.30
2022-11-04T04:54:05.254Z,3.90
2022-11-04T04:56:31.745Z,3.17
2022-11-04T04:58:58.462Z,2.60
2022-11-04T05:01:25.045Z,2.83
2022-11-04T05:03:51.765Z,2.70
2022-11-04T05:06:18.217Z,3.13
2022-11-04T05:08:44.676Z,4.37
2022-11-04T05:11:11.212Z,4.50
2022-11-04T05:13:37.754Z,3.07
2022-11-04T05:16:05.297Z,3.00
2022-11-04T05:18:31.759Z,2.60
2022-11-04T05:20:58.418Z,3.20
2022-11-04T05:23:25.049Z,3.37
2022-11-04T05:25:51.480Z,3.50
2022-11-04T05:28:18.045Z,3.33
2022-11-04T05:30:44.643Z,3.30
2022-11-04T05:33:11.512Z,3.30
2022-11-04T05:35:38.523Z,3.40
2022-11-04T05:38:05.015Z,3.20
2022-11-04T05:40:31.601Z,3.33
2022-11-04T05:42:59.399Z,4.53
2022-11-04T05:45:26.651Z,4.30
2022-11-04T05:48:04.159Z,3.57
2022-11-04T05:50:31.665Z,3.50
2022-11-04T05:52:58.785Z,5.30
2022-11-04T05:55:25.992Z,3.77
2022-11-04T05:57:52.958Z,4.33
2022-11-04T06:00:19.970Z,3.90
2022-11-04T06:02:46.539Z,4.20
2022-11-04T06:05:13.522Z,5.00
2022-11-04T06:07:40.115Z,4.50
2022-11-04T06:10:07.099Z,4.83
2022-11-04T06:12:33.595Z,4.07
2022-11-04T06:15:00.176Z,3.33
2022-11-04T06:17:26.633Z,4.40
2022-11-04T06:19:53.158Z,4.50
2022-11-04T06:22:19.794Z,4.33
2022-11-04T06:24:46.331Z,3.37
2022-11-04T06:27:13.238Z,3.90
2022-11-04T06:29:41.104Z,3.53
2022-11-04T06:32:12.125Z,4.33
2022-11-04T06:34:38.779Z,3.27
2022-11-04T06:37:05.644Z,3.13
2022-11-04T06:39:32.209Z,3.57
2022-11-04T06:41:59.739Z,4.30
2022-11-04T06:44:29.221Z,4.50
2022-11-04T06:46:55.849Z,4.63
2022-11-04T06:49:25.394Z,3.70
2022-11-04T06:51:52.159Z,4.57
2022-11-04T06:54:19.040Z,4.50
2022-11-04T06:56:45.873Z,3.20
2022-11-04T06:59:16.896Z,4.00
2022-11-04T07:01:43.542Z,3.13
2022-11-04T07:04:10.222Z,3.80
2022-11-04T07:06:38.501Z,3.80
2022-11-04T07:09:07.725Z,3.10
2022-11-04T07:11:34.182Z,4.77
2022-11-04T07:14:00.867Z,3.03
2022-11-04T07:16:27.536Z,3.07
2022-11-04T07:18:54.801Z,3.83
2022-11-04T07:21:21.858Z,5.03
2022-11-04T07:23:48.338Z,3.17
2022-11-04T07:26:15.010Z,4.10
2022-11-04T07:28:41.809Z,4.60
2022-11-04T07:31:10.897Z,3.90
2022-11-04T07:33:37.790Z,3.53
2022-11-04T07:36:09.375Z,4.10
2022-11-04T07:38:37.281Z,4.30
2022-11-04T07:41:04.047Z,3.80
2022-11-04T07:43:30.901Z,4.30
2022-11-04T07:46:01.977Z,3.73
2022-11-04T07:48:28.558Z,7.00
2022-11-04T07:50:56.147Z,12.30
2022-11-04T07:53:23.018Z,3.47
2022-11-04T07:55:51.249Z,3.50
2022-11-04T07:58:21.313Z,5.83
2022-11-04T08:00:47.840Z,6.43
2022-11-04T08:03:14.559Z,3.60
2022-11-04T08:05:41.262Z,4.73
2022-11-04T08:08:08.025Z,4.90
2022-11-04T08:10:34.789Z,3.93
2022-11-04T08:13:01.325Z,4.40
2022-11-04T08:15:29.324Z,4.90
2022-11-04T08:17:55.904Z,3.80
2022-11-04T08:20:22.478Z,6.37
2022-11-04T08:22:49.136Z,3.00
2022-11-04T08:25:15.777Z,2.80
2022-11-04T08:27:42.304Z,3.30
2022-11-04T08:30:09.321Z,3.10
2022-11-04T08:32:35.822Z,3.63
2022-11-04T08:35:02.275Z,3.40
2022-11-04T08:37:28.901Z,3.40
2022-11-04T08:39:55.326Z,2.90
2022-11-04T08:42:22.045Z,3.57
2022-11-04T08:44:51.172Z,3.97
2022-11-04T08:47:18.060Z,2.90
2022-11-04T08:49:44.586Z,2.50
2022-11-04T08:52:11.077Z,2.47
2022-11-04T08:54:37.575Z,3.53
2022-11-04T08:57:04.299Z,4.30
2022-11-04T08:59:30.837Z,4.57
2022-11-04T09:01:57.445Z,4.53
2022-11-04T09:04:24.281Z,3.20
2022-11-04T09:06:52.097Z,3.47
2022-11-04T09:09:18.760Z,3.13
2022-11-04T09:11:45.693Z,4.10
2022-11-04T09:14:12.578Z,3.83
2022-11-04T09:16:40.308Z,2.60
2022-11-04T09:19:07.356Z,5.57
2022-11-04T09:21:33.866Z,5.40
2022-11-04T09:24:00.432Z,7.33
2022-11-04T09:26:27.105Z,7.03
2022-11-04T09:28:54.938Z,7.40
2022-11-04T09:31:21.692Z,7.20
2022-11-04T09:33:48.409Z,10.27
2022-11-04T09:36:15.099Z,9.07
2022-11-04T09:38:41.955Z,11.73
2022-11-04T09:41:28.849Z,10.30
2022-11-04T09:43:58.437Z,8.10
2022-11-04T09:46:25.563Z,6.70
2022-11-04T09:48:53.672Z,7.77
2022-11-04T09:51:47.955Z,7.10
2022-11-04T09:54:15.813Z,7.30
2022-11-04T09:56:44.732Z,6.33
2022-11-04T09:59:15.023Z,6.20
2022-11-04T10:01:44.697Z,6.47
2022-11-04T10:04:18.251Z,3.77
2022-11-04T10:07:00.954Z,2.37
2022-11-04T10:09:46.597Z,2.40
2022-11-04T10:12:40.631Z,3.43
2022-11-04T10:15:19.665Z,3.60
2022-11-04T10:17:54.498Z,3.73
2022-11-04T10:20:21.404Z,3.37
2022-11-04T10:22:51.315Z,3.30
2022-11-04T10:25:41.137Z,2.60
2022-11-04T10:28:11.208Z,2.30
2022-11-04T10:30:39.847Z,3.17
2022-11-04T10:33:13.197Z,3.40
2022-11-04T10:35:42.561Z,2.97
2022-11-04T10:38:15.287Z,2.40
2022-11-04T10:40:41.934Z,2.00
2022-11-04T10:43:10.668Z,1.43
2022-11-04T10:45:42.422Z,3.63
2022-11-04T10:48:12.747Z,3.30
2022-11-04T10:50:42.620Z,2.30
2022-11-04T10:53:12.239Z,2.63
2022-11-04T10:55:38.927Z,3.67
2022-11-04T10:58:12.341Z,3.00
2022-11-04T11:00:41.068Z,2.47
2022-11-04T11:03:22.987Z,1.87
2022-11-04T11:05:50.385Z,2.40
2022-11-04T11:08:27.966Z,1.50
2022-11-04T11:10:54.721Z,1.20
2022-11-04T11:13:26.264Z,1.40
2022-11-04T11:16:13.327Z,1.67
2022-11-04T11:18:40.635Z,2.10
2022-11-04T11:21:09.533Z,1.53
2022-11-04T11:23:39.467Z,2.50
2022-11-04T11:26:07.229Z,2.20
2022-11-04T11:28:38.403Z,2.30
2022-11-04T11:31:11.864Z,2.17
2022-11-04T11:33:41.783Z,2.87
2022-11-04T11:36:12.887Z,2.97
2022-11-04T11:38:51.337Z,2.10
2022-11-04T11:41:25.505Z,2.20
2022-11-04T11:43:53.459Z,3.30
2022-11-04T11:46:24.453Z,2.30
2022-11-04T11:48:51.878Z,3.23
2022-11-04T11:51:31.803Z,2.63
2022-11-04T11:54:04.972Z,2.20
2022-11-04T11:57:07.290Z,3.10
2022-11-04T12:02:39.096Z,2.47
2022-11-04T12:11:15.047Z,2.30
2022-11-04T12:13:44.239Z,3.13
2022-11-04T12:16:21.117Z,2.70
2022-11-04T12:19:13.405Z,1.93
2022-11-04T12:22:03.480Z,3.10
2022-11-04T12:24:30.038Z,2.00
2022-11-04T12:27:02.925Z,2.67
2022-11-04T12:29:30.089Z,2.80
2022-11-04T12:32:20.291Z,3.90
2022-11-04T12:34:55.791Z,2.93
2022-11-04T12:37:22.574Z,3.60
2022-11-04T12:39:55.204Z,4.00
2022-11-04T12:42:33.409Z,4.40
2022-11-04T12:45:06.344Z,3.13
2022-11-04T12:47:33.359Z,3.00
2022-11-04T12:50:27.957Z,3.33
2022-11-04T12:53:07.064Z,3.43
2022-11-04T12:55:45.493Z,3.30
2022-11-04T12:58:21.547Z,3.13
2022-11-04T13:00:51.943Z,4.10
2022-11-04T13:03:22.215Z,3.70
2022-11-04T13:05:53.977Z,3.60
2022-11-04T13:08:24.352Z,2.53
2022-11-04T13:10:54.010Z,2.60
2022-11-04T13:13:23.113Z,3.57
2022-11-04T13:15:55.811Z,3.40
2022-11-04T13:18:25.513Z,3.70
2022-11-04T13:21:02.419Z,5.73
2022-11-04T13:23:34.858Z,5.40
2022-11-04T13:26:02.261Z,3.67
2022-11-04T13:28:28.942Z,3.60
2022-11-04T13:30:56.100Z,5.23
2022-11-04T13:33:26.038Z,5.20
2022-11-04T13:35:59.608Z,4.67
2022-11-04T13:38:31.175Z,4.57
2022-11-04T13:41:10.367Z,6.50
2022-11-04T13:43:39.312Z,6.07
2022-11-04T13:46:15.917Z,6.73
2022-11-04T13:48:51.825Z,8.33
2022-11-04T13:51:19.209Z,11.03
2022-11-04T13:53:45.681Z,13.17
2022-11-04T13:56:33.487Z,14.27
2022-11-04T13:59:06.615Z,11.93
2022-11-04T14:01:33.875Z,10.80
2022-11-04T14:04:06.630Z,12.60
2022-11-04T14:06:47.771Z,11.53
2022-11-04T14:09:30.576Z,12.30
2022-11-04T14:12:17.503Z,12.73
2022-11-04T14:14:45.992Z,11.93
2022-11-04T14:17:31.466Z,12.27
2022-11-04T14:20:14.333Z,13.40
2022-11-04T14:22:43.968Z,16.07
2022-11-04T14:25:27.416Z,14.07
2022-11-04T14:27:55.695Z,15.37
2022-11-04T14:30:29.790Z,15.50
2022-11-04T14:33:01.208Z,14.57
2022-11-04T14:35:29.187Z,15.30
2022-11-04T14:37:56.258Z,18.50
2022-11-04T14:40:27.599Z,18.93
2022-11-04T14:42:55.855Z,20.43
2022-11-04T14:45:24.765Z,17.80
2022-11-04T14:47:53.565Z,16.47
2022-11-04T14:50:23.021Z,16.77
2022-11-04T14:53:03.629Z,15.00
2022-11-04T14:55:30.841Z,11.60
2022-11-04T14:58:17.254Z,8.50
2022-11-04T15:00:49.924Z,8.53
2022-11-04T15:03:57.445Z,6.50
2022-11-04T15:06:05.635Z,7.90
2022-11-04T15:08:32.205Z,6.90
2022-11-04T15:11:05.721Z,6.93
2022-11-04T15:13:36.216Z,7.13
2022-11-04T15:16:05.747Z,6.20
2022-11-04T15:18:32.943Z,6.03
2022-11-04T15:21:00.497Z,7.67
2022-11-04T15:23:28.292Z,9.83
2022-11-04T15:25:56.166Z,9.47
2022-11-04T15:28:23.714Z,8.30
2022-11-04T15:30:57.484Z,9.57
2022-11-04T15:33:25.111Z,10.90
2022-11-04T15:35:52.037Z,20.20
2022-11-04T15:38:18.580Z,17.47
2022-11-04T15:40:45.862Z,16.10
2022-11-04T15:43:14.774Z,15.77
2022-11-04T15:45:47.494Z,15.37
2022-11-04T15:48:30.958Z,14.87
2022-11-04T15:51:06.576Z,17.73
2022-11-04T15:53:34.851Z,16.57
2022-11-04T15:56:01.737Z,18.37
2022-11-04T15:58:28.981Z,26.27
2022-11-04T16:00:56.214Z,33.50
2022-11-04T16:03:24.173Z,30.17
2022-11-04T16:06:02.400Z,24.93
2022-11-04T16:08:29.124Z,21.00
2022-11-04T16:11:08.721Z,20.63
2022-11-04T16:13:35.305Z,24.17
2022-11-04T16:16:02.478Z,23.90
2022-11-04T16:18:28.973Z,20.30
2022-11-04T16:20:55.960Z,20.90
2022-11-04T16:23:24.760Z,62.43
2022-11-04T16:26:09.496Z,42.60
2022-11-04T16:28:37.705Z,44.90
2022-11-04T16:31:06.574Z,45.40
2022-11-04T16:33:33.223Z,46.30
2022-11-04T16:35:59.781Z,49.40
2022-11-04T16:38:26.599Z,47.93
2022-11-04T16:40:53.127Z,42.80
2022-11-04T16:43:21.047Z,47.37
2022-11-04T16:45:53.331Z,50.57
2022-11-04T16:48:21.253Z,47.20
2022-11-04T16:50:49.103Z,45.10
2022-11-04T16:53:15.624Z,44.17
2022-11-04T16:55:42.984Z,45.27
2022-11-04T16:58:18.931Z,41.00
2022-11-04T17:00:45.752Z,49.17
2022-11-04T17:03:20.993Z,54.07
2022-11-04T17:05:49.058Z,50.70
2022-11-04T17:08:15.633Z,54.67
2022-11-04T17:10:44.289Z,43.90
2022-11-04T17:13:11.477Z,48.07
2022-11-04T17:15:38.380Z,46.80
2022-11-04T17:18:05.321Z,43.30
2022-11-04T17:20:32.157Z,45.17
2022-11-04T17:22:59.031Z,45.07
2022-11-04T17:25:26.884Z,52.07
2022-11-04T17:27:53.685Z,57.67
2022-11-04T17:30:24.784Z,57.57
2022-11-04T17:32:51.325Z,50.00
2022-11-04T17:35:18.188Z,44.70
2022-11-04T17:37:45.011Z,51.60
2022-11-04T17:40:16.437Z,55.03
2022-11-04T17:43:02.618Z,53.20
2022-11-04T17:45:31.690Z,38.73
2022-11-04T17:47:58.208Z,40.40
2022-11-04T17:50:24.803Z,37.27
2022-11-04T17:52:51.333Z,36.57
2022-11-04T17:55:21.882Z,35.03
2022-11-04T17:57:51.200Z,30.27
2022-11-04T18:00:19.664Z,32.73
2022-11-04T18:02:46.326Z,35.53
2022-11-04T18:05:12.891Z,36.43
2022-11-04T18:07:39.409Z,40.70
2022-11-04T18:10:06.212Z,51.23
2022-11-04T18:12:41.099Z,56.30
2022-11-04T18:15:12.362Z,46.20
2022-11-04T18:17:39.737Z,47.17
2022-11-04T18:20:13.294Z,48.60
2022-11-04T18:22:40.542Z,62.27
2022-11-04T18:25:07.492Z,69.73
2022-11-04T18:27:34.403Z,80.17
2022-11-04T18:30:00.917Z,72.90
2022-11-04T18:32:27.529Z,61.13
2022-11-04T18:34:54.354Z,65.20
2022-11-04T18:37:21.003Z,57.10
2022-11-04T18:39:47.644Z,44.60
2022-11-04T18:42:14.213Z,102.67
2022-11-04T18:44:40.748Z,73.40
2022-11-04T18:47:07.231Z,77.73
2022-11-04T18:49:33.802Z,61.43
2022-11-04T18:52:00.314Z,106.63
2022-11-04T18:54:26.875Z,51.90
2022-11-04T18:56:53.419Z,98.33
2022-11-04T18:59:19.974Z,71.33
2022-11-04T19:01:46.703Z,96.00
2022-11-04T19:04:13.351Z,98.57
2022-11-04T19:06:41.214Z,105.03
2022-11-04T19:09:40.176Z,83.87
2022-11-04T19:12:15.773Z,116.97
2022-11-04T19:14:42.462Z,87.10
2022-11-04T19:17:09.814Z,83.77
2022-11-04T19:19:36.596Z,91.97
2022-11-04T19:22:03.244Z,68.03
2022-11-04T19:24:29.761Z,62.43
2022-11-04T19:26:56.441Z,53.83
2022-11-04T19:29:23.023Z,46.33
2022-11-04T19:31:49.532Z,43.17
2022-11-04T19:34:16.013Z,41.50
2022-11-04T19:36:42.488Z,47.17
2022-11-04T19:39:08.976Z,93.23
2022-11-04T19:41:54.254Z,120.77
2022-11-04T19:44:21.898Z,103.73
2022-11-04T19:46:49.346Z,47.30
2022-11-04T19:49:16.131Z,49.77
2022-11-04T19:51:42.710Z,57.40
2022-11-04T19:54:11.302Z,81.10
2022-11-04T19:56:38.036Z,54.70
2022-11-04T19:59:06.388Z,55.97
2022-11-04T20:01:34.356Z,69.13
2022-11-04T20:04:02.707Z,45.80
2022-11-04T20:06:29.549Z,43.90
2022-11-04T20:08:56.182Z,50.80
2022-11-04T20:11:23.507Z,44.10
2022-11-04T20:13:51.939Z,53.53
2022-11-04T20:16:19.839Z,52.67
2022-11-04T20:18:47.811Z,44.37
2022-11-04T20:21:15.055Z,43.27
2022-11-04T20:23:41.823Z,41.67
2022-11-04T20:26:12.905Z,36.73
2022-11-04T20:28:42.862Z,38.50
2022-11-04T20:31:14.481Z,37.67
2022-11-04T20:33:41.144Z,38.50
2022-11-04T20:36:07.825Z,41.87
2022-11-04T20:38:34.492Z,45.63
2022-11-04T20:41:08.343Z,46.67
2022-11-04T20:43:36.095Z,51.23
2022-11-04T20:46:13.859Z,42.90
2022-11-04T20:48:40.442Z,51.40
2022-11-04T20:51:07.389Z,49.33
2022-11-04T20:53:34.005Z,45.07
2022-11-04T20:56:00.676Z,42.37
2022-11-04T20:58:27.178Z,32.80
2022-11-04T21:00:54.202Z,34.20
2022-11-04T21:03:20.756Z,32.53
2022-11-04T21:05:47.309Z,34.20
2022-11-04T21:08:13.847Z,27.87
2022-11-04T21:10:40.508Z,27.83
2022-11-04T21:13:07.039Z,26.27
2022-11-04T21:15:42.771Z,24.57
2022-11-04T21:18:10.165Z,24.87
2022-11-04T21:20:39.628Z,24.27
2022-11-04T21:23:06.507Z,25.00
2022-11-04T21:25:38.618Z,24.87
2022-11-04T21:28:05.276Z,27.17
2022-11-04T21:30:33.523Z,26.07
2022-11-04T21:33:00.347Z,30.97
2022-11-04T21:35:29.437Z,30.60
2022-11-04T21:38:00.970Z,30.63
2022-11-04T21:40:28.066Z,27.60
2022-11-04T21:43:00.222Z,24.40
2022-11-04T21:45:32.299Z,25.23
2022-11-04T21:47:58.908Z,25.67
2022-11-04T21:50:25.389Z,26.33
2022-11-04T21:52:52.352Z,26.63
2022-11-04T21:55:19.315Z,25.30
2022-11-04T21:57:45.844Z,26.57
2022-11-04T22:00:13.951Z,26.80
2022-11-04T22:02:45.676Z,28.30
2022-11-04T22:05:15.708Z,29.23
2022-11-04T22:08:01.066Z,33.47
2022-11-04T22:10:28.155Z,30.97
2022-11-04T22:12:55.196Z,29.43
2022-11-04T22:15:40.481Z,25.00
2022-11-04T22:18:07.247Z,26.23
2022-11-04T22:20:37.098Z,22.90
2022-11-04T22:23:04.033Z,23.23
2022-11-04T22:25:30.980Z,22.50
2022-11-04T22:27:57.665Z,23.20
2022-11-04T22:30:24.622Z,21.87
2022-11-04T22:32:51.767Z,21.47
2022-11-04T22:35:18.639Z,20.23
2022-11-04T22:37:45.398Z,22.60
2022-11-04T22:40:12.282Z,21.23
2022-11-04T22:42:39.073Z,22.53
2022-11-04T22:45:05.971Z,21.67
2022-11-04T22:47:32.702Z,22.70
2022-11-04T22:49:59.355Z,22.30
2022-11-04T22:52:25.910Z,23.53
2022-11-04T22:54:52.779Z,23.40
2022-11-04T22:57:19.505Z,21.20
2022-11-04T22:59:46.286Z,24.63
2022-11-04T23:02:13.054Z,22.37
2022-11-04T23:04:40.250Z,26.63
2022-11-04T23:07:07.188Z,25.57
2022-11-04T23:09:34.029Z,29.10
2022-11-04T23:12:19.309Z,25.73
2022-11-04T23:15:06.163Z,25.40
2022-11-04T23:17:51.394Z,27.93
2022-11-04T23:20:18.631Z,27.50
2022-11-04T23:23:03.976Z,27.23
2022-11-04T23:25:30.501Z,28.10
2022-11-04T23:28:15.644Z,27.97
2022-11-04T23:30:43.511Z,30.30
2022-11-04T23:33:11.851Z,31.17
2022-11-04T23:35:59.394Z,32.30
2022-11-04T23:38:26.452Z,31.90
2022-11-04T23:41:21.397Z,33.70
2022-11-04T23:43:48.116Z,32.97
2022-11-04T23:46:37.916Z,38.17
2022-11-04T23:49:27.671Z,32.27
2022-11-04T23:52:12.925Z,34.00
2022-11-04T23:54:58.132Z,35.57
2022-11-04T23:57:43.490Z,33.17
